sensor_id;sensor_type;location;lat;lon;timestamp;pressure;altitude;pressure_sealevel;temperature;humidity
61472;BME280;47337;54.068;12.114;2023-04-20T00:00:57;55380.69;;;-143.62;100.00
61472;BME280;47337;54.068;12.114;2023-04-20T00:03:25;55380.69;;;-143.62;100.00
61472;BME280;47337;54.068;12.114;2023-04-20T00:05:51;55380.69;;;-143.62;100.00
61472;BME280;47337;54.068;12.114;2023-04-20T00:08:17;55380.69;;;-143.62;100.00
61472;BME280;47337;54.068;12.114;2023-04-20T00:10:43;55380.69;;;-143.62;100.00
61472;BME280;47337;54.068;12.114;2023-04-20T00:13:09;55380.69;;;-143.62;100.00
61472;BME280;47337;54.068;12.114;2023-04-20T00:15:39;55380.69;;;-143.62;100.00
61472;BME280;47337;54.068;12.114;2023-04-20T00:18:05;55380.69;;;-143.62;100.00
61472;BME280;47337;54.068;12.114;2023-04-20T00:20:30;55380.69;;;-143.62;100.00
61472;BME280;47337;54.068;12.114;2023-04-20T00:22:58;55380.69;;;-143.62;100.00
61472;BME280;47337;54.068;12.114;2023-04-20T00:25:23;55380.69;;;-143.62;100.00
61472;BME280;47337;54.068;12.114;2023-04-20T00:27:49;55380.69;;;-143.62;100.00
61472;BME280;47337;54.068;12.114;2023-04-20T00:30:17;55380.69;;;-143.62;100.00
61472;BME280;47337;54.068;12.114;2023-04-20T00:32:44;55380.69;;;-143.62;100.00
61472;BME280;47337;54.068;12.114;2023-04-20T00:35:11;55380.69;;;-143.62;100.00
61472;BME280;47337;54.068;12.114;2023-04-20T00:37:36;55380.69;;;-143.62;100.00
61472;BME280;47337;54.068;12.114;2023-04-20T00:40:01;55380.69;;;-143.62;100.00
61472;BME280;47337;54.068;12.114;2023-04-20T00:42:30;55380.69;;;-143.62;100.00
61472;BME280;47337;54.068;12.114;2023-04-20T00:44:55;55380.69;;;-143.62;100.00
61472;BME280;47337;54.068;12.114;2023-04-20T00:47:21;55380.69;;;-143.62;100.00
61472;BME280;47337;54.068;12.114;2023-04-20T00:49:51;55380.69;;;-143.62;100.00
61472;BME280;47337;54.068;12.114;2023-04-20T00:52:17;55380.69;;;-143.62;100.00
61472;BME280;47337;54.068;12.114;2023-04-20T00:54:42;55380.69;;;-143.62;100.00
61472;BME280;47337;54.068;12.114;2023-04-20T00:57:12;55380.69;;;-143.62;100.00
61472;BME280;47337;54.068;12.114;2023-04-20T00:59:40;55380.69;;;-143.62;100.00
61472;BME280;47337;54.068;12.114;2023-04-20T01:02:08;55380.69;;;-143.62;100.00
61472;BME280;47337;54.068;12.114;2023-04-20T01:04:34;55380.69;;;-143.62;100.00
61472;BME280;47337;54.068;12.114;2023-04-20T01:07:01;55380.69;;;-143.62;100.00
61472;BME280;47337;54.068;12.114;2023-04-20T01:09:28;55380.69;;;-143.62;100.00
61472;BME280;47337;54.068;12.114;2023-04-20T01:11:56;55380.69;;;-143.62;100.00
61472;BME280;47337;54.068;12.114;2023-04-20T01:14:25;55380.69;;;-143.62;100.00
61472;BME280;47337;54.068;12.114;2023-04-20T01:16:51;55380.69;;;-143.62;100.00
61472;BME280;47337;54.068;12.114;2023-04-20T01:19:16;55380.69;;;-143.62;100.00
61472;BME280;47337;54.068;12.114;2023-04-20T01:21:45;55380.69;;;-143.62;100.00
61472;BME280;47337;54.068;12.114;2023-04-20T01:24:11;55380.69;;;-143.62;100.00
61472;BME280;47337;54.068;12.114;2023-04-20T01:26:36;55380.69;;;-143.62;100.00
61472;BME280;47337;54.068;12.114;2023-04-20T01:29:04;55380.69;;;-143.62;100.00
61472;BME280;47337;54.068;12.114;2023-04-20T01:31:30;55380.69;;;-143.62;100.00
61472;BME280;47337;54.068;12.114;2023-04-20T01:33:58;55380.69;;;-143.62;100.00
61472;BME280;47337;54.068;12.114;2023-04-20T01:36:26;55380.69;;;-143.62;100.00
61472;BME280;47337;54.068;12.114;2023-04-20T01:38:51;55380.69;;;-143.62;100.00
61472;BME280;47337;54.068;12.114;2023-04-20T01:41:17;55380.69;;;-143.62;100.00
61472;BME280;47337;54.068;12.114;2023-04-20T01:43:45;55380.69;;;-143.62;100.00
61472;BME280;47337;54.068;12.114;2023-04-20T01:46:10;55380.69;;;-143.62;100.00
61472;BME280;47337;54.068;12.114;2023-04-20T01:48:35;55380.69;;;-143.62;100.00
61472;BME280;47337;54.068;12.114;2023-04-20T01:51:01;55380.69;;;-143.62;100.00
61472;BME280;47337;54.068;12.114;2023-04-20T01:53:29;55380.69;;;-143.62;100.00
61472;BME280;47337;54.068;12.114;2023-04-20T01:55:54;55380.69;;;-143.62;100.00
61472;BME280;47337;54.068;12.114;2023-04-20T01:58:22;55380.69;;;-143.62;100.00
61472;BME280;47337;54.068;12.114;2023-04-20T02:00:47;55380.69;;;-143.62;100.00
61472;BME280;47337;54.068;12.114;2023-04-20T02:03:13;55380.69;;;-143.62;100.00
61472;BME280;47337;54.068;12.114;2023-04-20T02:05:38;55380.69;;;-143.62;100.00
61472;BME280;47337;54.068;12.114;2023-04-20T02:08:04;55380.69;;;-143.62;100.00
61472;BME280;47337;54.068;12.114;2023-04-20T02:10:29;55380.69;;;-143.62;100.00
61472;BME280;47337;54.068;12.114;2023-04-20T02:12:55;55380.69;;;-143.62;100.00
61472;BME280;47337;54.068;12.114;2023-04-20T02:15:20;55380.69;;;-143.62;100.00
61472;BME280;47337;54.068;12.114;2023-04-20T02:17:46;55380.69;;;-143.62;100.00
61472;BME280;47337;54.068;12.114;2023-04-20T02:20:16;55380.69;;;-143.62;100.00
61472;BME280;47337;54.068;12.114;2023-04-20T02:22:43;55380.69;;;-143.62;100.00
61472;BME280;47337;54.068;12.114;2023-04-20T02:25:12;55380.69;;;-143.62;100.00
61472;BME280;47337;54.068;12.114;2023-04-20T02:27:40;55380.69;;;-143.62;100.00
61472;BME280;47337;54.068;12.114;2023-04-20T02:30:06;55380.69;;;-143.62;100.00
61472;BME280;47337;54.068;12.114;2023-04-20T02:32:32;55380.69;;;-143.62;100.00
61472;BME280;47337;54.068;12.114;2023-04-20T02:34:59;55380.69;;;-143.62;100.00
61472;BME280;47337;54.068;12.114;2023-04-20T02:37:24;55380.69;;;-143.62;100.00
61472;BME280;47337;54.068;12.114;2023-04-20T02:39:50;55380.69;;;-143.62;100.00
61472;BME280;47337;54.068;12.114;2023-04-20T02:42:15;55380.69;;;-143.62;100.00
61472;BME280;47337;54.068;12.114;2023-04-20T02:44:40;55380.69;;;-143.62;100.00
61472;BME280;47337;54.068;12.114;2023-04-20T02:47:06;55380.69;;;-143.62;100.00
61472;BME280;47337;54.068;12.114;2023-04-20T02:49:34;55380.69;;;-143.62;100.00
61472;BME280;47337;54.068;12.114;2023-04-20T02:51:59;55380.69;;;-143.62;100.00
61472;BME280;47337;54.068;12.114;2023-04-20T02:54:25;55380.69;;;-143.62;100.00
61472;BME280;47337;54.068;12.114;2023-04-20T02:56:52;55380.69;;;-143.62;100.00
61472;BME280;47337;54.068;12.114;2023-04-20T02:59:18;55380.69;;;-143.62;100.00
61472;BME280;47337;54.068;12.114;2023-04-20T03:01:56;101755.16;;;7.29;92.00
61472;BME280;47337;54.068;12.114;2023-04-20T03:04:24;101763.44;;;7.19;93.15
61472;BME280;47337;54.068;12.114;2023-04-20T03:06:51;101762.50;;;7.17;93.87
61472;BME280;47337;54.068;12.114;2023-04-20T03:09:17;101771.97;;;7.15;94.52
61472;BME280;47337;54.068;12.114;2023-04-20T03:11:44;101773.28;;;7.26;94.64
61472;BME280;47337;54.068;12.114;2023-04-20T03:14:11;101766.97;;;7.21;95.14
61472;BME280;47337;54.068;12.114;2023-04-20T03:16:39;101768.91;;;7.25;95.67
61472;BME280;47337;54.068;12.114;2023-04-20T03:19:05;101767.31;;;7.29;95.77
61472;BME280;47337;54.068;12.114;2023-04-20T03:21:31;101758.66;;;7.30;96.04
61472;BME280;47337;54.068;12.114;2023-04-20T03:23:59;101758.53;;;7.27;96.32
61472;BME280;47337;54.068;12.114;2023-04-20T03:26:29;101758.69;;;7.31;96.85
61472;BME280;47337;54.068;12.114;2023-04-20T03:28:55;101755.31;;;7.34;96.92
61472;BME280;47337;54.068;12.114;2023-04-20T03:31:20;101757.34;;;7.41;97.21
61472;BME280;47337;54.068;12.114;2023-04-20T03:33:45;101753.09;;;7.22;97.54
61472;BME280;47337;54.068;12.114;2023-04-20T03:36:14;101758.25;;;7.21;97.54
61472;BME280;47337;54.068;12.114;2023-04-20T03:38:39;101759.16;;;7.21;98.00
61472;BME280;47337;54.068;12.114;2023-04-20T03:41:07;101764.88;;;7.33;98.85
61472;BME280;47337;54.068;12.114;2023-04-20T03:43:33;101754.53;;;7.37;98.54
61472;BME280;47337;54.068;12.114;2023-04-20T03:45:58;101750.84;;;7.31;98.65
61472;BME280;47337;54.068;12.114;2023-04-20T03:48:24;101744.09;;;7.37;98.46
61472;BME280;47337;54.068;12.114;2023-04-20T03:50:49;101738.75;;;7.33;98.47
61472;BME280;47337;54.068;12.114;2023-04-20T03:53:17;101747.41;;;7.32;99.09
61472;BME280;47337;54.068;12.114;2023-04-20T03:55:43;101744.31;;;7.43;98.88
61472;BME280;47337;54.068;12.114;2023-04-20T03:58:16;101743.34;;;7.39;99.00
61472;BME280;47337;54.068;12.114;2023-04-20T04:00:41;101743.75;;;7.27;99.29
61472;BME280;47337;54.068;12.114;2023-04-20T04:03:07;101751.28;;;7.20;99.78
61472;BME280;47337;54.068;12.114;2023-04-20T04:05:32;101753.00;;;7.19;100.00
61472;BME280;47337;54.068;12.114;2023-04-20T04:07:57;101760.31;;;7.28;100.00
61472;BME280;47337;54.068;12.114;2023-04-20T04:10:23;101765.13;;;7.40;100.00
61472;BME280;47337;54.068;12.114;2023-04-20T04:12:48;101753.88;;;7.42;100.00
61472;BME280;47337;54.068;12.114;2023-04-20T04:15:14;101743.97;;;7.33;100.00
61472;BME280;47337;54.068;12.114;2023-04-20T04:17:43;101751.41;;;7.45;100.00
61472;BME280;47337;54.068;12.114;2023-04-20T04:20:14;101741.34;;;7.33;100.00
61472;BME280;47337;54.068;12.114;2023-04-20T04:22:40;101750.69;;;7.49;100.00
61472;BME280;47337;54.068;12.114;2023-04-20T04:25:06;101748.16;;;7.51;100.00
61472;BME280;47337;54.068;12.114;2023-04-20T04:27:32;101749.81;;;7.49;100.00
61472;BME280;47337;54.068;12.114;2023-04-20T04:30:02;101750.91;;;7.55;100.00
61472;BME280;47337;54.068;12.114;2023-04-20T04:32:28;101741.13;;;7.50;100.00
61472;BME280;47337;54.068;12.114;2023-04-20T04:34:54;101748.31;;;7.55;100.00
61472;BME280;47337;54.068;12.114;2023-04-20T04:37:20;101746.72;;;7.59;100.00
61472;BME280;47337;54.068;12.114;2023-04-20T04:39:49;101742.03;;;7.50;100.00
61472;BME280;47337;54.068;12.114;2023-04-20T04:42:15;101744.09;;;7.59;100.00
61472;BME280;47337;54.068;12.114;2023-04-20T04:44:40;101742.03;;;7.74;100.00
61472;BME280;47337;54.068;12.114;2023-04-20T04:47:06;101744.72;;;7.76;100.00
61472;BME280;47337;54.068;12.114;2023-04-20T04:49:33;101734.19;;;7.74;100.00
61472;BME280;47337;54.068;12.114;2023-04-20T04:52:00;101729.59;;;7.91;100.00
61472;BME280;47337;54.068;12.114;2023-04-20T04:54:26;101726.94;;;7.89;100.00
61472;BME280;47337;54.068;12.114;2023-04-20T04:56:51;101737.50;;;7.92;100.00
61472;BME280;47337;54.068;12.114;2023-04-20T04:59:16;101730.56;;;7.93;100.00
61472;BME280;47337;54.068;12.114;2023-04-20T05:01:44;101734.72;;;8.12;100.00
61472;BME280;47337;54.068;12.114;2023-04-20T05:04:09;101716.91;;;8.01;100.00
61472;BME280;47337;54.068;12.114;2023-04-20T05:06:35;101728.59;;;8.11;100.00
61472;BME280;47337;54.068;12.114;2023-04-20T05:09:00;101715.63;;;8.14;100.00
61472;BME280;47337;54.068;12.114;2023-04-20T05:11:25;101715.78;;;8.19;100.00
61472;BME280;47337;54.068;12.114;2023-04-20T05:13:51;101726.53;;;8.26;99.79
61472;BME280;47337;54.068;12.114;2023-04-20T05:16:17;101714.94;;;8.20;99.47
61472;BME280;47337;54.068;12.114;2023-04-20T05:18:42;101724.78;;;8.27;99.70
61472;BME280;47337;54.068;12.114;2023-04-20T05:21:08;101725.25;;;8.39;99.83
61472;BME280;47337;54.068;12.114;2023-04-20T05:23:33;101725.00;;;8.31;99.40
61472;BME280;47337;54.068;12.114;2023-04-20T05:25:58;101727.13;;;8.19;99.68
61472;BME280;47337;54.068;12.114;2023-04-20T05:28:26;101728.91;;;8.20;99.97
61472;BME280;47337;54.068;12.114;2023-04-20T05:30:51;101726.56;;;8.28;100.00
61472;BME280;47337;54.068;12.114;2023-04-20T05:33:19;101733.56;;;8.29;100.00
61472;BME280;47337;54.068;12.114;2023-04-20T05:35:45;101748.28;;;8.25;100.00
61472;BME280;47337;54.068;12.114;2023-04-20T05:38:10;101743.53;;;8.14;100.00
61472;BME280;47337;54.068;12.114;2023-04-20T05:40:38;101754.31;;;8.23;100.00
61472;BME280;47337;54.068;12.114;2023-04-20T05:43:03;101748.50;;;8.07;100.00
61472;BME280;47337;54.068;12.114;2023-04-20T05:45:28;101758.19;;;8.10;100.00
61472;BME280;47337;54.068;12.114;2023-04-20T05:47:56;101771.22;;;8.08;100.00
61472;BME280;47337;54.068;12.114;2023-04-20T05:50:23;101769.75;;;8.17;100.00
61472;BME280;47337;54.068;12.114;2023-04-20T05:52:50;101776.44;;;8.08;100.00
61472;BME280;47337;54.068;12.114;2023-04-20T05:55:18;101792.63;;;7.98;100.00
61472;BME280;47337;54.068;12.114;2023-04-20T05:57:46;101795.13;;;7.95;100.00
61472;BME280;47337;54.068;12.114;2023-04-20T06:00:16;101808.28;;;8.21;100.00
61472;BME280;47337;54.068;12.114;2023-04-20T06:02:42;101798.97;;;8.29;100.00
61472;BME280;47337;54.068;12.114;2023-04-20T06:05:08;101797.53;;;8.35;100.00
61472;BME280;47337;54.068;12.114;2023-04-20T06:07:34;101789.31;;;8.50;100.00
61472;BME280;47337;54.068;12.114;2023-04-20T06:10:00;101775.47;;;8.78;100.00
61472;BME280;47337;54.068;12.114;2023-04-20T06:12:29;101764.19;;;8.80;100.00
61472;BME280;47337;54.068;12.114;2023-04-20T06:14:57;101764.44;;;8.88;100.00
61472;BME280;47337;54.068;12.114;2023-04-20T06:17:23;101753.50;;;8.74;100.00
61472;BME280;47337;54.068;12.114;2023-04-20T06:19:49;101755.59;;;8.85;100.00
61472;BME280;47337;54.068;12.114;2023-04-20T06:22:14;101754.75;;;8.86;100.00
61472;BME280;47337;54.068;12.114;2023-04-20T06:24:41;101752.25;;;8.89;100.00
61472;BME280;47337;54.068;12.114;2023-04-20T06:27:09;101745.06;;;8.56;100.00
61472;BME280;47337;54.068;12.114;2023-04-20T06:29:35;101756.69;;;8.40;100.00
61472;BME280;47337;54.068;12.114;2023-04-20T06:32:01;101765.56;;;8.44;100.00
61472;BME280;47337;54.068;12.114;2023-04-20T06:34:27;101779.97;;;8.58;100.00
61472;BME280;47337;54.068;12.114;2023-04-20T06:36:52;101779.72;;;8.51;100.00
61472;BME280;47337;54.068;12.114;2023-04-20T06:39:18;101790.00;;;8.44;100.00
61472;BME280;47337;54.068;12.114;2023-04-20T06:41:46;101783.03;;;8.45;100.00
61472;BME280;47337;54.068;12.114;2023-04-20T06:44:11;101790.25;;;8.52;100.00
61472;BME280;47337;54.068;12.114;2023-04-20T06:46:36;101797.94;;;8.48;100.00
61472;BME280;47337;54.068;12.114;2023-04-20T06:49:02;101791.72;;;8.44;100.00
61472;BME280;47337;54.068;12.114;2023-04-20T06:51:32;101801.41;;;8.47;100.00
61472;BME280;47337;54.068;12.114;2023-04-20T06:53:58;101804.72;;;8.66;100.00
61472;BME280;47337;54.068;12.114;2023-04-20T06:56:24;101782.59;;;8.58;100.00
61472;BME280;47337;54.068;12.114;2023-04-20T06:58:49;101785.59;;;8.69;100.00
61472;BME280;47337;54.068;12.114;2023-04-20T07:01:17;101793.38;;;8.66;100.00
61472;BME280;47337;54.068;12.114;2023-04-20T07:03:43;101786.81;;;8.78;100.00
61472;BME280;47337;54.068;12.114;2023-04-20T07:06:10;101796.03;;;8.67;100.00
61472;BME280;47337;54.068;12.114;2023-04-20T07:08:36;101798.97;;;8.76;100.00
61472;BME280;47337;54.068;12.114;2023-04-20T07:11:02;101812.13;;;8.78;100.00
61472;BME280;47337;54.068;12.114;2023-04-20T07:13:33;101809.56;;;8.81;100.00
61472;BME280;47337;54.068;12.114;2023-04-20T07:15:59;101821.34;;;8.94;100.00
61472;BME280;47337;54.068;12.114;2023-04-20T07:18:24;101818.03;;;8.98;100.00
61472;BME280;47337;54.068;12.114;2023-04-20T07:20:53;101820.16;;;9.09;100.00
61472;BME280;47337;54.068;12.114;2023-04-20T07:23:18;101823.75;;;9.13;100.00
61472;BME280;47337;54.068;12.114;2023-04-20T07:25:44;101814.13;;;9.39;100.00
61472;BME280;47337;54.068;12.114;2023-04-20T07:28:09;101808.47;;;9.53;100.00
61472;BME280;47337;54.068;12.114;2023-04-20T07:30:37;101794.91;;;9.67;100.00
61472;BME280;47337;54.068;12.114;2023-04-20T07:33:02;101786.19;;;9.98;100.00
61472;BME280;47337;54.068;12.114;2023-04-20T07:35:28;101783.22;;;10.15;100.00
61472;BME280;47337;54.068;12.114;2023-04-20T07:37:53;101766.50;;;10.42;100.00
61472;BME280;47337;54.068;12.114;2023-04-20T07:40:19;101752.28;;;10.67;98.63
61472;BME280;47337;54.068;12.114;2023-04-20T07:42:44;101741.34;;;10.84;97.14
61472;BME280;47337;54.068;12.114;2023-04-20T07:45:12;101733.06;;;10.68;96.48
61472;BME280;47337;54.068;12.114;2023-04-20T07:47:37;101743.34;;;10.94;96.89
61472;BME280;47337;54.068;12.114;2023-04-20T07:50:08;101730.72;;;11.16;95.80
61472;BME280;47337;54.068;12.114;2023-04-20T07:52:35;101712.91;;;11.04;94.94
61472;BME280;47337;54.068;12.114;2023-04-20T07:55:01;101701.13;;;11.24;94.12
61472;BME280;47337;54.068;12.114;2023-04-20T07:57:29;101713.25;;;11.18;94.27
61472;BME280;47337;54.068;12.114;2023-04-20T07:59:56;101703.91;;;11.30;94.26
61472;BME280;47337;54.068;12.114;2023-04-20T08:02:24;101706.84;;;11.46;93.91
61472;BME280;47337;54.068;12.114;2023-04-20T08:04:50;101690.06;;;11.39;93.13
61472;BME280;47337;54.068;12.114;2023-04-20T08:07:15;101700.97;;;11.57;93.52
61472;BME280;47337;54.068;12.114;2023-04-20T08:09:41;101692.63;;;11.77;93.03
61472;BME280;47337;54.068;12.114;2023-04-20T08:12:07;101679.69;;;11.87;92.18
61472;BME280;47337;54.068;12.114;2023-04-20T08:14:32;101684.00;;;12.27;91.82
61472;BME280;47337;54.068;12.114;2023-04-20T08:17:00;101661.38;;;12.38;90.22
61472;BME280;47337;54.068;12.114;2023-04-20T08:19:26;101652.22;;;12.18;90.02
61472;BME280;47337;54.068;12.114;2023-04-20T08:21:51;101663.28;;;12.49;90.53
61472;BME280;47337;54.068;12.114;2023-04-20T08:24:21;101649.28;;;12.53;88.60
61472;BME280;47337;54.068;12.114;2023-04-20T08:26:46;101641.97;;;11.87;89.08
61472;BME280;47337;54.068;12.114;2023-04-20T08:29:12;101672.00;;;11.96;90.10
61472;BME280;47337;54.068;12.114;2023-04-20T08:31:39;101660.91;;;12.14;89.99
61472;BME280;47337;54.068;12.114;2023-04-20T08:34:07;101660.44;;;12.36;89.67
61472;BME280;47337;54.068;12.114;2023-04-20T08:36:32;101665.34;;;12.66;89.20
61472;BME280;47337;54.068;12.114;2023-04-20T08:39:09;101646.72;;;12.56;88.78
61472;BME280;47337;54.068;12.114;2023-04-20T08:41:35;101643.38;;;12.66;87.94
61472;BME280;47337;54.068;12.114;2023-04-20T08:44:01;101647.38;;;12.42;88.52
61472;BME280;47337;54.068;12.114;2023-04-20T08:46:27;101646.97;;;12.20;88.72
61472;BME280;47337;54.068;12.114;2023-04-20T08:48:53;101667.28;;;12.25;89.14
61472;BME280;47337;54.068;12.114;2023-04-20T08:51:21;101675.63;;;12.53;89.49
61472;BME280;47337;54.068;12.114;2023-04-20T08:53:47;101662.25;;;12.95;88.77
61472;BME280;47337;54.068;12.114;2023-04-20T08:56:12;101630.06;;;13.15;87.12
61472;BME280;47337;54.068;12.114;2023-04-20T08:58:40;101631.91;;;13.21;86.89
61472;BME280;47337;54.068;12.114;2023-04-20T09:01:10;101638.44;;;12.87;87.13
61472;BME280;47337;54.068;12.114;2023-04-20T09:03:42;101642.84;;;12.88;87.04
61472;BME280;47337;54.068;12.114;2023-04-20T09:06:15;101656.97;;;12.92;87.63
61472;BME280;47337;54.068;12.114;2023-04-20T09:08:42;101662.09;;;13.41;87.58
61472;BME280;47337;54.068;12.114;2023-04-20T09:11:26;101626.19;;;13.54;86.28
61472;BME280;47337;54.068;12.114;2023-04-20T09:14:07;101620.91;;;13.54;85.72
61472;BME280;47337;54.068;12.114;2023-04-20T09:16:52;101618.59;;;13.12;86.09
61472;BME280;47337;54.068;12.114;2023-04-20T09:19:27;101628.09;;;13.01;86.74
61472;BME280;47337;54.068;12.114;2023-04-20T09:21:57;101643.50;;;13.35;87.32
61472;BME280;47337;54.068;12.114;2023-04-20T09:24:31;101652.06;;;13.88;86.90
61472;BME280;47337;54.068;12.114;2023-04-20T09:26:59;101623.25;;;14.10;85.49
61472;BME280;47337;54.068;12.114;2023-04-20T09:29:27;101605.75;;;14.18;84.37
61472;BME280;47337;54.068;12.114;2023-04-20T09:31:57;101588.94;;;14.10;83.51
61472;BME280;47337;54.068;12.114;2023-04-20T09:34:22;101599.53;;;14.14;83.29
61472;BME280;47337;54.068;12.114;2023-04-20T09:36:51;101587.03;;;13.93;83.59
61472;BME280;47337;54.068;12.114;2023-04-20T09:39:19;101603.00;;;14.10;83.69
61472;BME280;47337;54.068;12.114;2023-04-20T09:41:48;101602.94;;;14.01;83.45
61472;BME280;47337;54.068;12.114;2023-04-20T09:44:17;101609.34;;;14.27;83.44
61472;BME280;47337;54.068;12.114;2023-04-20T09:46:43;101601.53;;;14.38;83.31
61472;BME280;47337;54.068;12.114;2023-04-20T09:49:11;101595.69;;;14.85;82.54
61472;BME280;47337;54.068;12.114;2023-04-20T09:51:42;101547.31;;;14.98;81.32
61472;BME280;47337;54.068;12.114;2023-04-20T09:54:09;101532.94;;;14.47;80.90
61472;BME280;47337;54.068;12.114;2023-04-20T09:56:35;101548.16;;;14.95;80.93
61472;BME280;47337;54.068;12.114;2023-04-20T09:59:01;101528.84;;;15.07;79.96
61472;BME280;47337;54.068;12.114;2023-04-20T10:01:31;101503.19;;;14.94;79.02
61472;BME280;47337;54.068;12.114;2023-04-20T10:04:01;101513.75;;;14.86;79.28
61472;BME280;47337;54.068;12.114;2023-04-20T10:06:28;101520.00;;;15.00;79.26
61472;BME280;47337;54.068;12.114;2023-04-20T10:08:55;101528.06;;;15.38;79.17
61472;BME280;47337;54.068;12.114;2023-04-20T10:14:21;101500.69;;;15.36;78.06
61472;BME280;47337;54.068;12.114;2023-04-20T10:19:55;101506.88;;;15.25;77.61
61472;BME280;47337;54.068;12.114;2023-04-20T10:22:27;101480.25;;;14.81;77.47
61472;BME280;47337;54.068;12.114;2023-04-20T10:24:57;101508.47;;;14.85;78.28
61472;BME280;47337;54.068;12.114;2023-04-20T10:27:25;101528.09;;;15.49;77.86
61472;BME280;47337;54.068;12.114;2023-04-20T10:29:53;101478.66;;;15.41;77.18
61472;BME280;47337;54.068;12.114;2023-04-20T10:32:32;101493.69;;;15.51;76.72
61472;BME280;47337;54.068;12.114;2023-04-20T10:35:05;101490.03;;;15.08;76.97
61472;BME280;47337;54.068;12.114;2023-04-20T10:37:46;101518.13;;;14.80;78.33
61472;BME280;47337;54.068;12.114;2023-04-20T10:40:12;101527.09;;;15.15;78.19
61472;BME280;47337;54.068;12.114;2023-04-20T10:42:44;101499.72;;;14.93;77.38
61472;BME280;47337;54.068;12.114;2023-04-20T10:45:12;101498.78;;;14.88;77.39
61472;BME280;47337;54.068;12.114;2023-04-20T10:47:37;101504.13;;;15.05;77.31
61472;BME280;47337;54.068;12.114;2023-04-20T10:50:12;101489.06;;;14.80;76.95
61472;BME280;47337;54.068;12.114;2023-04-20T10:52:40;101497.81;;;14.74;77.65
61472;BME280;47337;54.068;12.114;2023-04-20T10:55:22;101511.13;;;14.94;77.64
61472;BME280;47337;54.068;12.114;2023-04-20T10:57:49;101524.47;;;15.14;77.86
61472;BME280;47337;54.068;12.114;2023-04-20T11:00:16;101531.53;;;15.22;77.93
61472;BME280;47337;54.068;12.114;2023-04-20T11:02:48;101535.09;;;15.36;78.02
61472;BME280;47337;54.068;12.114;2023-04-20T11:05:14;101533.38;;;15.35;77.95
61472;BME280;47337;54.068;12.114;2023-04-20T11:07:53;101535.78;;;14.81;78.75
61472;BME280;47337;54.068;12.114;2023-04-20T11:10:24;101574.72;;;15.14;79.51
61472;BME280;47337;54.068;12.114;2023-04-20T11:13:06;101557.09;;;15.20;78.99
61472;BME280;47337;54.068;12.114;2023-04-20T11:15:42;101548.88;;;14.65;78.69
61472;BME280;47337;54.068;12.114;2023-04-20T11:18:10;101574.19;;;14.36;79.95
61472;BME280;47337;54.068;12.114;2023-04-20T11:20:37;101577.69;;;14.34;80.12
61472;BME280;47337;54.068;12.114;2023-04-20T11:23:13;101580.50;;;14.50;79.76
61472;BME280;47337;54.068;12.114;2023-04-20T11:25:51;101586.84;;;14.72;79.88
61472;BME280;47337;54.068;12.114;2023-04-20T11:28:19;101563.69;;;14.42;79.54
61472;BME280;47337;54.068;12.114;2023-04-20T11:30:44;101584.53;;;14.09;80.23
61472;BME280;47337;54.068;12.114;2023-04-20T11:33:11;101583.72;;;14.16;80.33
61472;BME280;47337;54.068;12.114;2023-04-20T11:35:39;101583.53;;;13.96;80.36
61472;BME280;47337;54.068;12.114;2023-04-20T11:38:08;101601.38;;;14.23;80.90
61472;BME280;47337;54.068;12.114;2023-04-20T11:40:36;101580.44;;;14.44;80.02
61472;BME280;47337;54.068;12.114;2023-04-20T11:43:02;101584.28;;;14.95;79.44
61472;BME280;47337;54.068;12.114;2023-04-20T11:45:31;101532.81;;;14.35;78.56
61472;BME280;47337;54.068;12.114;2023-04-20T11:48:02;101556.72;;;14.50;78.92
61472;BME280;47337;54.068;12.114;2023-04-20T11:50:28;101544.75;;;13.87;79.19
61472;BME280;47337;54.068;12.114;2023-04-20T11:52:54;101569.28;;;13.80;79.81
61472;BME280;47337;54.068;12.114;2023-04-20T11:55:19;101587.75;;;13.80;80.63
61472;BME280;47337;54.068;12.114;2023-04-20T11:57:47;101569.00;;;13.51;80.49
61472;BME280;47337;54.068;12.114;2023-04-20T12:00:15;101580.31;;;13.41;81.04
61472;BME280;47337;54.068;12.114;2023-04-20T12:02:42;101583.00;;;13.47;81.16
61472;BME280;47337;54.068;12.114;2023-04-20T12:05:07;101591.91;;;13.57;81.49
61472;BME280;47337;54.068;12.114;2023-04-20T12:07:33;101596.47;;;13.70;81.76
61472;BME280;47337;54.068;12.114;2023-04-20T12:10:01;101590.66;;;14.05;81.32
61472;BME280;47337;54.068;12.114;2023-04-20T12:12:26;101574.84;;;14.11;80.54
61472;BME280;47337;54.068;12.114;2023-04-20T12:14:55;101573.03;;;14.04;80.38
61472;BME280;47337;54.068;12.114;2023-04-20T12:17:24;101572.66;;;13.64;81.08
61472;BME280;47337;54.068;12.114;2023-04-20T12:19:50;101589.44;;;13.72;81.31
61472;BME280;47337;54.068;12.114;2023-04-20T12:22:16;101571.88;;;13.77;80.89
61472;BME280;47337;54.068;12.114;2023-04-20T12:24:45;101570.94;;;13.66;80.99
61472;BME280;47337;54.068;12.114;2023-04-20T12:27:10;101552.53;;;13.74;80.75
61472;BME280;47337;54.068;12.114;2023-04-20T12:29:35;101554.44;;;13.91;80.66
61472;BME280;47337;54.068;12.114;2023-04-20T12:32:01;101546.78;;;14.22;80.04
61472;BME280;47337;54.068;12.114;2023-04-20T12:34:26;101519.56;;;14.32;79.50
61472;BME280;47337;54.068;12.114;2023-04-20T12:36:51;101514.22;;;14.23;79.47
61472;BME280;47337;54.068;12.114;2023-04-20T12:39:19;101528.50;;;14.46;80.00
61472;BME280;47337;54.068;12.114;2023-04-20T12:41:45;101501.41;;;14.81;78.66